Time;durP1;ratioP1;P1;durP2;ratioP2;P2;SDS_P1;SDS_P2;PMS_P1;PMS_P2;Temp;Humidity;BMP_temperature;BMP_pressure;BME280_temperature;BME280_humidity;BME280_pressure;Samples;Min_cycle;Max_cycle;Signal;HPM_P1;HPM_P2
2023/07/12 02:00:27;;;;;;;5.18;3.22;;;;;;;;;;4934967;27;20117;-76
2023/07/12 02:02:54;;;;;;;7.75;3.33;;;;;;;;;;4292461;33;20049;-75
2023/07/12 02:05:21;;;;;;;4.87;3.55;;;;;;;;;;4293990;33;20063;-75
2023/07/12 02:07:48;;;;;;;6.62;3.90;;;;;;;;;;4294824;33;20451;-82
2023/07/12 02:10:16;;;;;;;7.90;3.40;;;;;;;;;;4293108;33;20055;-74
2023/07/12 02:12:42;;;;;;;4.07;3.62;;;;;;;;;;4293476;33;20736;-76
2023/07/12 02:15:10;;;;;;;6.07;3.67;;;;;;;;;;4297069;33;20092;-77
2023/07/12 02:17:37;;;;;;;3.58;3.28;;;;;;;;;;4309296;33;20147;-76
2023/07/12 02:20:07;;;;;;;11.68;3.70;;;;;;;;;;4309031;33;20362;-81
2023/07/12 02:22:36;;;;;;;10.10;3.45;;;;;;;;;;4309197;33;20074;-74
2023/07/12 02:25:02;;;;;;;16.23;3.75;;;;;;;;;;4309497;33;20563;-77
2023/07/12 02:27:29;;;;;;;7.85;3.37;;;;;;;;;;4309149;33;20089;-76
2023/07/12 02:29:55;;;;;;;16.58;3.40;;;;;;;;;;4309437;33;20083;-76
2023/07/12 02:32:22;;;;;;;6.20;3.62;;;;;;;;;;4303497;33;20045;-81
2023/07/12 02:34:51;;;;;;;6.12;3.70;;;;;;;;;;4308915;33;20113;-76
2023/07/12 02:37:17;;;;;;;9.38;3.67;;;;;;;;;;4309160;33;20049;-76
2023/07/12 02:39:44;;;;;;;7.82;3.92;;;;;;;;;;4309070;33;20092;-76
2023/07/12 02:42:10;;;;;;;9.30;3.55;;;;;;;;;;4307835;33;20449;-77
2023/07/12 02:44:37;;;;;;;6.25;3.50;;;;;;;;;;4307626;33;20515;-74
2023/07/12 02:47:04;;;;;;;4.80;3.65;;;;;;;;;;4308948;33;20819;-74
2023/07/12 02:49:30;;;;;;;5.87;3.70;;;;;;;;;;4308972;33;20447;-75
2023/07/12 02:51:56;;;;;;;6.55;3.95;;;;;;;;;;4308892;33;20360;-74
2023/07/12 02:54:22;;;;;;;7.28;4.25;;;;;;;;;;4305831;33;20075;-76
2023/07/12 02:56:48;;;;;;;7.07;3.92;;;;;;;;;;4309410;33;20739;-74
2023/07/12 02:59:14;;;;;;;5.55;3.83;;;;;;;;;;4312093;33;20053;-74
2023/07/12 03:01:47;;;;;;;11.00;3.78;;;;;;;;;;4310593;33;20197;-76
2023/07/12 03:04:13;;;;;;;4.35;3.40;;;;;;;;;;4311621;33;20053;-75
2023/07/12 03:06:40;;;;;;;5.10;3.72;;;;;;;;;;4310347;33;20082;-76
2023/07/12 03:09:06;;;;;;;15.05;3.70;;;;;;;;;;4312150;33;20086;-76
2023/07/12 03:11:32;;;;;;;6.97;3.92;;;;;;;;;;4311748;33;20050;-76
2023/07/12 03:13:59;;;;;;;6.53;3.67;;;;;;;;;;4311531;33;20088;-76
2023/07/12 03:16:25;;;;;;;9.55;4.35;;;;;;;;;;4279636;33;20168;-74
2023/07/12 03:18:51;;;;;;;8.88;4.00;;;;;;;;;;4278198;33;20097;-74
2023/07/12 03:21:18;;;;;;;9.88;4.18;;;;;;;;;;4250586;33;20817;-75
2023/07/12 03:23:44;;;;;;;4.00;3.45;;;;;;;;;;4250975;33;20375;-74
2023/07/12 03:26:10;;;;;;;9.27;4.10;;;;;;;;;;4250324;33;20872;-74
2023/07/12 03:28:36;;;;;;;7.40;4.55;;;;;;;;;;4251816;33;20456;-75
2023/07/12 03:31:04;;;;;;;10.50;5.62;;;;;;;;;;4248477;33;20135;-75
2023/07/12 03:33:30;;;;;;;8.40;3.92;;;;;;;;;;4251211;33;20055;-74
2023/07/12 03:35:56;;;;;;;11.38;4.40;;;;;;;;;;4250667;33;20042;-74
2023/07/12 03:38:25;;;;;;;11.68;4.07;;;;;;;;;;4250493;33;20038;-74
2023/07/12 03:40:53;;;;;;;9.18;3.72;;;;;;;;;;4248457;33;20407;-78
2023/07/12 03:43:19;;;;;;;11.68;4.35;;;;;;;;;;4250841;33;20552;-75
2023/07/12 03:45:45;;;;;;;5.68;4.18;;;;;;;;;;4250527;33;20060;-73
2023/07/12 03:48:11;;;;;;;5.00;4.03;;;;;;;;;;4272646;33;20054;-74
2023/07/12 03:50:39;;;;;;;4.93;3.75;;;;;;;;;;4279204;33;20053;-79
2023/07/12 03:53:04;;;;;;;6.55;4.57;;;;;;;;;;4290687;33;20075;-75
2023/07/12 03:55:31;;;;;;;5.20;3.67;;;;;;;;;;4293063;33;20071;-74
2023/07/12 03:57:57;;;;;;;4.10;3.40;;;;;;;;;;4249656;33;20115;-76
2023/07/12 04:00:23;;;;;;;6.47;3.47;;;;;;;;;;4249787;33;20072;-75
2023/07/12 04:02:50;;;;;;;6.15;3.50;;;;;;;;;;4233963;33;20365;-75
2023/07/12 04:05:16;;;;;;;7.05;4.07;;;;;;;;;;4237442;33;20076;-73
2023/07/12 04:07:42;;;;;;;7.30;3.10;;;;;;;;;;4237464;33;20038;-74
2023/07/12 04:10:08;;;;;;;7.20;3.55;;;;;;;;;;4235658;33;20086;-75
2023/07/12 04:12:35;;;;;;;7.18;4.10;;;;;;;;;;4236774;33;20039;-75
2023/07/12 04:15:01;;;;;;;20.65;3.85;;;;;;;;;;4233254;33;20063;-77
2023/07/12 04:17:27;;;;;;;6.20;3.58;;;;;;;;;;4236366;33;20929;-75
2023/07/12 04:19:54;;;;;;;2.95;2.65;;;;;;;;;;4236963;33;20081;-74
2023/07/12 04:22:20;;;;;;;26.87;3.60;;;;;;;;;;4236989;33;20054;-74
2023/07/12 04:24:53;;;;;;;10.10;3.83;;;;;;;;;;4207313;34;20081;-77
2023/07/12 04:27:18;;;;;;;5.30;3.87;;;;;;;;;;4208955;34;20066;-76
2023/07/12 04:29:45;;;;;;;6.97;3.83;;;;;;;;;;4220201;34;20368;-75
2023/07/12 04:32:11;;;;;;;13.85;5.00;;;;;;;;;;4207932;34;20189;-74
2023/07/12 04:34:37;;;;;;;9.85;3.53;;;;;;;;;;4219795;34;20531;-74
2023/07/12 04:37:04;;;;;;;5.65;3.35;;;;;;;;;;4221344;34;20027;-77
2023/07/12 04:39:30;;;;;;;7.93;4.05;;;;;;;;;;4211446;34;20433;-77
2023/07/12 04:41:56;;;;;;;4.65;3.78;;;;;;;;;;4208652;34;20150;-75
2023/07/12 04:44:22;;;;;;;4.30;3.55;;;;;;;;;;4208729;34;20082;-76
2023/07/12 04:46:48;;;;;;;7.07;3.50;;;;;;;;;;4208965;34;20083;-74
2023/07/12 04:49:15;;;;;;;10.45;4.22;;;;;;;;;;4208496;34;20059;-78
2023/07/12 04:51:41;;;;;;;11.35;3.83;;;;;;;;;;4207053;34;20078;-75
2023/07/12 04:54:07;;;;;;;9.23;3.80;;;;;;;;;;4179168;34;20058;-74
2023/07/12 04:56:33;;;;;;;12.68;3.95;;;;;;;;;;4194042;34;20111;-75
2023/07/12 04:58:59;;;;;;;6.87;3.65;;;;;;;;;;4194686;34;20413;-76
2023/07/12 05:01:25;;;;;;;18.85;4.12;;;;;;;;;;4193118;34;20048;-78
2023/07/12 05:03:52;;;;;;;8.45;3.65;;;;;;;;;;4203259;34;20501;-75
2023/07/12 05:06:18;;;;;;;5.18;3.53;;;;;;;;;;4208407;34;20058;-74
2023/07/12 05:08:44;;;;;;;5.40;3.40;;;;;;;;;;4208381;34;20047;-76
2023/07/12 05:11:10;;;;;;;7.60;3.45;;;;;;;;;;4228215;33;20038;-77
2023/07/12 05:13:36;;;;;;;5.50;3.00;;;;;;;;;;4233136;33;20050;-77
2023/07/12 05:16:03;;;;;;;6.20;3.45;;;;;;;;;;4236290;33;20046;-76
2023/07/12 05:18:29;;;;;;;7.50;3.37;;;;;;;;;;4236038;33;20107;-76
2023/07/12 05:20:55;;;;;;;7.65;3.58;;;;;;;;;;4235982;33;20245;-76
2023/07/12 05:23:21;;;;;;;7.95;3.50;;;;;;;;;;4235155;33;20089;-79
2023/07/12 05:25:48;;;;;;;13.75;3.83;;;;;;;;;;4266374;33;20053;-78
2023/07/12 05:28:15;;;;;;;4.05;3.65;;;;;;;;;;4268031;33;20053;-75
2023/07/12 05:30:41;;;;;;;5.93;3.35;;;;;;;;;;4263827;33;20414;-77
2023/07/12 05:33:07;;;;;;;4.43;3.20;;;;;;;;;;4262596;33;20062;-74
2023/07/12 05:35:33;;;;;;;4.68;3.35;;;;;;;;;;4263622;33;20645;-77
2023/07/12 05:37:59;;;;;;;20.60;3.95;;;;;;;;;;4261959;33;20034;-76
2023/07/12 05:40:25;;;;;;;9.07;3.25;;;;;;;;;;4263552;33;20061;-76
2023/07/12 05:42:58;;;;;;;8.75;2.97;;;;;;;;;;4233944;33;20090;-74
2023/07/12 05:45:25;;;;;;;8.50;3.50;;;;;;;;;;4234120;33;20467;-74
2023/07/12 05:47:53;;;;;;;14.07;3.45;;;;;;;;;;4249321;33;20076;-77
2023/07/12 05:50:21;;;;;;;17.33;3.12;;;;;;;;;;4227944;33;20086;-74
2023/07/12 05:52:49;;;;;;;7.03;2.97;;;;;;;;;;4227558;33;20561;-76
2023/07/12 05:55:19;;;;;;;5.50;3.70;;;;;;;;;;4230829;33;20194;-76
2023/07/12 05:57:51;;;;;;;9.13;3.53;;;;;;;;;;4203266;34;20062;-73
2023/07/12 06:00:23;;;;;;;6.20;3.97;;;;;;;;;;4200610;34;20385;-75
2023/07/12 06:02:53;;;;;;;6.20;3.22;;;;;;;;;;4193221;34;20081;-76
2023/07/12 06:05:29;;;;;;;5.20;3.58;;;;;;;;;;4193116;34;20040;-80
2023/07/12 06:07:59;;;;;;;11.30;3.47;;;;;;;;;;4191927;34;20496;-75
2023/07/12 06:10:34;;;;;;;11.35;3.75;;;;;;;;;;4194970;34;20031;-76
2023/07/12 06:13:05;;;;;;;18.42;3.70;;;;;;;;;;4196875;34;20078;-75
2023/07/12 06:15:34;;;;;;;5.68;2.97;;;;;;;;;;4212025;34;20047;-75
2023/07/12 06:18:01;;;;;;;11.73;3.65;;;;;;;;;;4207023;34;20470;-76
2023/07/12 06:20:35;;;;;;;19.45;3.97;;;;;;;;;;4207574;34;20069;-76
2023/07/12 06:23:02;;;;;;;4.55;3.12;;;;;;;;;;4208869;34;20489;-76
2023/07/12 06:25:28;;;;;;;5.28;3.47;;;;;;;;;;4220617;34;20114;-77
2023/07/12 06:27:58;;;;;;;10.55;3.87;;;;;;;;;;4193332;34;20067;-75
2023/07/12 06:30:24;;;;;;;11.27;3.20;;;;;;;;;;4193656;34;20514;-76
2023/07/12 06:32:52;;;;;;;22.37;3.78;;;;;;;;;;4196033;34;20379;-75
2023/07/12 06:35:19;;;;;;;13.05;3.92;;;;;;;;;;4231605;33;20046;-77
2023/07/12 06:37:47;;;;;;;14.02;3.65;;;;;;;;;;4249966;33;20076;-77
2023/07/12 06:40:15;;;;;;;12.57;3.00;;;;;;;;;;4252156;33;20042;-80
2023/07/12 06:42:42;;;;;;;11.23;3.72;;;;;;;;;;4237748;33;20374;-75
2023/07/12 06:45:09;;;;;;;10.30;2.80;;;;;;;;;;4208312;34;20527;-75
2023/07/12 06:47:35;;;;;;;9.70;3.60;;;;;;;;;;4208870;34;20047;-75
2023/07/12 06:50:01;;;;;;;11.38;3.97;;;;;;;;;;4206934;34;20077;-77
2023/07/12 06:52:27;;;;;;;7.57;4.43;;;;;;;;;;4208709;34;20260;-76
2023/07/12 06:54:54;;;;;;;6.20;3.62;;;;;;;;;;4208246;34;20061;-76
2023/07/12 06:57:25;;;;;;;4.05;2.87;;;;;;;;;;4209577;34;20114;-77
2023/07/12 06:59:53;;;;;;;10.50;3.55;;;;;;;;;;4231539;33;20076;-76
2023/07/12 07:02:19;;;;;;;14.45;4.95;;;;;;;;;;4233023;33;20245;-76
2023/07/12 07:04:46;;;;;;;13.00;4.90;;;;;;;;;;4237804;33;20058;-77
2023/07/12 07:07:21;;;;;;;8.48;3.08;;;;;;;;;;4226565;33;20093;-76
2023/07/12 07:09:48;;;;;;;8.60;4.00;;;;;;;;;;4238027;33;20084;-76
2023/07/12 07:12:17;;;;;;;4.43;3.05;;;;;;;;;;4234091;33;20377;-76
2023/07/12 07:14:48;;;;;;;8.25;3.45;;;;;;;;;;4237594;33;20046;-76
2023/07/12 07:17:16;;;;;;;11.65;3.67;;;;;;;;;;4238620;33;20065;-76
2023/07/12 07:19:45;;;;;;;20.50;3.60;;;;;;;;;;4250177;33;20376;-76
2023/07/12 07:22:11;;;;;;;13.27;3.45;;;;;;;;;;4246216;33;20042;-80
2023/07/12 07:24:38;;;;;;;3.87;2.95;;;;;;;;;;4196772;34;20036;-75
2023/07/12 07:27:04;;;;;;;7.12;3.17;;;;;;;;;;4196933;34;20047;-76
2023/07/12 07:29:31;;;;;;;4.12;3.05;;;;;;;;;;4197599;34;20040;-77
2023/07/12 07:32:03;;;;;;;7.78;3.42;;;;;;;;;;4196642;34;20043;-76
2023/07/12 07:34:37;;;;;;;10.18;3.25;;;;;;;;;;4196260;34;20861;-77
2023/07/12 07:37:10;;;;;;;5.25;2.70;;;;;;;;;;4195408;34;20048;-75
2023/07/12 07:39:37;;;;;;;12.05;3.50;;;;;;;;;;4195595;34;20119;-76
2023/07/12 07:42:04;;;;;;;4.95;3.15;;;;;;;;;;4194707;34;20484;-80
2023/07/12 07:44:34;;;;;;;3.25;2.95;;;;;;;;;;4221819;33;20031;-76
2023/07/12 07:47:01;;;;;;;3.55;3.25;;;;;;;;;;4241816;33;20093;-77
2023/07/12 07:49:30;;;;;;;8.07;3.35;;;;;;;;;;4237495;33;20054;-77
2023/07/12 07:51:58;;;;;;;7.60;3.50;;;;;;;;;;4223592;33;20080;-80
2023/07/12 07:54:29;;;;;;;3.53;3.05;;;;;;;;;;4237805;33;20098;-77
2023/07/12 07:56:57;;;;;;;14.52;3.20;;;;;;;;;;4248921;33;20055;-75
2023/07/12 07:59:27;;;;;;;7.15;3.83;;;;;;;;;;4204736;34;20051;-78
2023/07/12 08:01:55;;;;;;;7.95;3.17;;;;;;;;;;4204945;34;20058;-78
2023/07/12 08:04:23;;;;;;;12.27;4.72;;;;;;;;;;4220527;34;20051;-76
2023/07/12 08:06:55;;;;;;;7.25;3.97;;;;;;;;;;4221506;34;20067;-76
2023/07/12 08:09:22;;;;;;;4.85;3.17;;;;;;;;;;4205780;34;20406;-80
2023/07/12 08:11:52;;;;;;;12.15;3.25;;;;;;;;;;4207287;34;20116;-80
2023/07/12 08:14:23;;;;;;;9.25;3.60;;;;;;;;;;4209336;34;20227;-83
2023/07/12 08:16:49;;;;;;;9.10;4.10;;;;;;;;;;4210984;34;20065;-84
2023/07/12 08:19:16;;;;;;;9.38;3.83;;;;;;;;;;4181748;34;20119;-74
2023/07/12 08:21:43;;;;;;;12.43;4.15;;;;;;;;;;4181334;34;20483;-79
2023/07/12 08:24:11;;;;;;;12.23;3.75;;;;;;;;;;4208416;34;20063;-81
2023/07/12 08:26:38;;;;;;;7.12;3.35;;;;;;;;;;4208693;34;20047;-82
2023/07/12 08:29:04;;;;;;;4.12;3.30;;;;;;;;;;4188140;34;20126;-82
2023/07/12 08:31:32;;;;;;;6.25;4.07;;;;;;;;;;4185125;34;20473;-80
2023/07/12 08:33:59;;;;;;;3.37;3.05;;;;;;;;;;4180072;34;20111;-79
2023/07/12 08:36:26;;;;;;;7.95;3.40;;;;;;;;;;4181719;34;20448;-79
2023/07/12 08:38:52;;;;;;;15.70;3.37;;;;;;;;;;4178850;34;20516;-79
2023/07/12 08:41:21;;;;;;;7.60;3.08;;;;;;;;;;4172220;34;20081;-79
2023/07/12 08:43:50;;;;;;;10.73;3.58;;;;;;;;;;4183146;34;20387;-81
2023/07/12 08:46:25;;;;;;;3.70;3.05;;;;;;;;;;4177737;34;20036;-79
2023/07/12 08:49:01;;;;;;;7.22;3.42;;;;;;;;;;4180556;34;20041;-80
2023/07/12 08:51:31;;;;;;;4.90;3.90;;;;;;;;;;4179148;34;20140;-80
2023/07/12 08:53:57;;;;;;;9.45;3.85;;;;;;;;;;4178979;34;20068;-78
2023/07/12 08:56:24;;;;;;;4.28;3.22;;;;;;;;;;4192172;34;20367;-78
2023/07/12 08:58:52;;;;;;;9.48;4.03;;;;;;;;;;4208380;34;20077;-79
2023/07/12 09:01:32;;;;;;;15.38;4.25;;;;;;;;;;4220577;33;20057;-78
2023/07/12 09:03:58;;;;;;;18.62;3.47;;;;;;;;;;4227589;33;20149;-76
2023/07/12 09:06:24;;;;;;;12.98;4.30;;;;;;;;;;4238190;33;20050;-73
2023/07/12 09:08:53;;;;;;;21.77;4.15;;;;;;;;;;4248102;33;20049;-74
2023/07/12 09:11:26;;;;;;;9.65;5.15;;;;;;;;;;4247650;33;20058;-77
2023/07/12 09:13:53;;;;;;;15.50;3.58;;;;;;;;;;4247466;33;20043;-77
2023/07/12 09:16:23;;;;;;;6.18;3.72;;;;;;;;;;4247504;33;20514;-76
2023/07/12 09:18:52;;;;;;;11.68;4.12;;;;;;;;;;4242280;33;20070;-78
2023/07/12 09:21:23;;;;;;;10.48;3.85;;;;;;;;;;4239326;33;20054;-80
2023/07/12 09:23:51;;;;;;;9.10;3.67;;;;;;;;;;4227794;33;20316;-76
2023/07/12 09:26:23;;;;;;;9.98;3.60;;;;;;;;;;4227464;33;20486;-75
2023/07/12 09:28:50;;;;;;;6.22;3.53;;;;;;;;;;4225854;33;20116;-80
2023/07/12 09:31:20;;;;;;;9.27;3.90;;;;;;;;;;4226099;33;20058;-77
2023/07/12 09:33:53;;;;;;;9.30;3.87;;;;;;;;;;4222924;33;20117;-75
2023/07/12 09:36:27;;;;;;;4.70;3.92;;;;;;;;;;4225102;33;20110;-75
2023/07/12 09:38:59;;;;;;;12.68;5.82;;;;;;;;;;4230087;33;20114;-74
2023/07/12 09:41:25;;;;;;;7.93;3.60;;;;;;;;;;4250822;33;20061;-74
2023/07/12 09:43:55;;;;;;;9.75;3.37;;;;;;;;;;4223054;33;20107;-76
2023/07/12 09:46:31;;;;;;;4.90;4.03;;;;;;;;;;4230256;33;20050;-75
2023/07/12 09:49:04;;;;;;;19.23;3.97;;;;;;;;;;4224858;33;20043;-80
2023/07/12 09:51:31;;;;;;;6.78;3.72;;;;;;;;;;4231283;33;20046;-77
2023/07/12 09:54:06;;;;;;;12.20;4.05;;;;;;;;;;4241092;33;20057;-75
2023/07/12 09:56:41;;;;;;;11.25;4.28;;;;;;;;;;4401978;28;20115;-75
2023/07/12 09:59:14;;;;;;;8.60;4.50;;;;;;;;;;4216121;33;20453;-76
2023/07/12 10:02:01;;;;;;;14.25;5.03;;;;;;;;;;4215587;34;20076;-77
2023/07/12 10:04:29;;;;;;;5.55;4.55;;;;;;;;;;4212443;34;20035;-75
2023/07/12 10:06:57;;;;;;;7.57;4.20;;;;;;;;;;4211012;33;20106;-76
2023/07/12 10:09:29;;;;;;;11.12;4.32;;;;;;;;;;4208853;33;20073;-78
2023/07/12 10:12:18;;;;;;;8.38;4.55;;;;;;;;;;4211425;34;20050;-75
2023/07/12 10:14:45;;;;;;;12.75;4.82;;;;;;;;;;4208446;34;20192;-73
2023/07/12 10:17:16;;;;;;;9.38;5.22;;;;;;;;;;4215446;34;20054;-74
2023/07/12 10:19:43;;;;;;;16.05;5.12;;;;;;;;;;4198001;34;20073;-75
2023/07/12 10:22:15;;;;;;;18.02;5.07;;;;;;;;;;4212017;34;20463;-75
2023/07/12 10:24:43;;;;;;;35.70;7.70;;;;;;;;;;4197749;34;20077;-75
2023/07/12 10:27:16;;;;;;;20.55;4.95;;;;;;;;;;4196940;34;20414;-76
2023/07/12 10:29:48;;;;;;;14.52;4.85;;;;;;;;;;4199362;34;20147;-76
2023/07/12 10:32:22;;;;;;;17.33;4.18;;;;;;;;;;4199260;34;20051;-75
2023/07/12 10:34:54;;;;;;;18.17;5.32;;;;;;;;;;4201814;34;20055;-76
2023/07/12 10:37:20;;;;;;;;;;;;;;;;;;4168101;34;20052;-76
2023/07/12 10:39:46;;;;;;;13.13;5.43;;;;;;;;;;4166349;34;20011;-76
2023/07/12 10:42:16;;;;;;;9.93;5.40;;;;;;;;;;4168437;34;20170;-76
2023/07/12 10:44:45;;;;;;;14.70;5.75;;;;;;;;;;4162447;34;20036;-76
2023/07/12 10:47:15;;;;;;;12.48;4.53;;;;;;;;;;4190461;34;20260;-74
2023/07/12 10:49:47;;;;;;;13.75;5.20;;;;;;;;;;4202522;34;20039;-75
2023/07/12 10:52:33;;;;;;;7.10;5.15;;;;;;;;;;4203524;34;20060;-76
2023/07/12 10:55:02;;;;;;;19.10;6.03;;;;;;;;;;4206424;34;20051;-77
2023/07/12 10:57:36;;;;;;;20.70;4.87;;;;;;;;;;4217887;34;20106;-78
2023/07/12 11:03:11;;;;;;;20.40;5.47;;;;;;;;;;3912178;32;20680;-76
2023/07/12 11:05:40;;;;;;;17.87;5.60;;;;;;;;;;4196257;34;20631;-76
2023/07/12 11:08:26;;;;;;;13.73;5.20;;;;;;;;;;4196822;34;20051;-76
2023/07/12 11:10:53;;;;;;;9.15;4.93;;;;;;;;;;4180740;34;20071;-77
2023/07/12 11:13:19;;;;;;;11.38;5.00;;;;;;;;;;4196296;34;20036;-77
2023/07/12 11:15:49;;;;;;;11.15;5.60;;;;;;;;;;4204006;34;21008;-77
2023/07/12 11:18:23;;;;;;;25.15;6.45;;;;;;;;;;4207644;34;20047;-77
2023/07/12 11:20:57;;;;;;;14.15;5.20;;;;;;;;;;4204832;34;20076;-75
2023/07/12 11:23:28;;;;;;;17.65;5.72;;;;;;;;;;4180987;34;20065;-76
2023/07/12 11:26:01;;;;;;;13.00;5.93;;;;;;;;;;4175044;34;20068;-77
2023/07/12 11:28:36;;;;;;;8.30;5.15;;;;;;;;;;4175117;34;20044;-77
2023/07/12 11:31:14;;;;;;;8.75;5.82;;;;;;;;;;4162453;34;20098;-76
2023/07/12 11:33:44;;;;;;;12.95;5.10;;;;;;;;;;4164952;34;20062;-76
2023/07/12 11:36:18;;;;;;;14.75;6.12;;;;;;;;;;4151969;34;20045;-77
2023/07/12 11:38:46;;;;;;;7.95;6.47;;;;;;;;;;4152209;34;20100;-75
2023/07/12 11:41:21;;;;;;;13.18;5.25;;;;;;;;;;4132698;34;20477;-75
2023/07/12 11:43:47;;;;;;;10.43;6.03;;;;;;;;;;4128554;34;20507;-74
2023/07/12 11:46:15;;;;;;;15.57;5.95;;;;;;;;;;4109638;34;20045;-76
2023/07/12 11:48:43;;;;;;;8.85;6.32;;;;;;;;;;4112657;34;20514;-75
2023/07/12 11:51:16;;;;;;;16.33;5.60;;;;;;;;;;4115036;34;20474;-75
2023/07/12 11:53:50;;;;;;;9.43;5.78;;;;;;;;;;4126848;34;20048;-77
2023/07/12 11:56:16;;;;;;;11.82;6.53;;;;;;;;;;4137042;34;20126;-75
2023/07/12 11:58:42;;;;;;;8.73;5.87;;;;;;;;;;4138628;34;20048;-76
2023/07/12 12:01:14;;;;;;;6.22;5.00;;;;;;;;;;4142267;34;20059;-75
2023/07/12 12:03:40;;;;;;;14.70;5.28;;;;;;;;;;4155712;34;20064;-76
2023/07/12 12:06:09;;;;;;;11.63;5.15;;;;;;;;;;4158172;34;21043;-76
2023/07/12 12:08:36;;;;;;;8.50;5.35;;;;;;;;;;4172926;34;20032;-75
2023/07/12 12:11:02;;;;;;;17.48;5.35;;;;;;;;;;4181444;34;20083;-75
2023/07/12 12:13:30;;;;;;;10.02;5.28;;;;;;;;;;4194473;34;20108;-77
2023/07/12 12:15:59;;;;;;;7.45;5.40;;;;;;;;;;4194349;34;20094;-76
2023/07/12 12:18:25;;;;;;;7.32;5.47;;;;;;;;;;4212531;34;20051;-77
2023/07/12 12:20:53;;;;;;;7.62;6.07;;;;;;;;;;4192359;34;20141;-76
2023/07/12 12:23:22;;;;;;;14.93;5.62;;;;;;;;;;4206603;34;20047;-77
2023/07/12 12:25:49;;;;;;;10.95;5.60;;;;;;;;;;4208639;34;20067;-74
2023/07/12 12:28:27;;;;;;;12.35;5.87;;;;;;;;;;4176636;34;20453;-75
2023/07/12 12:31:17;;;;;;;7.85;5.53;;;;;;;;;;4181534;34;20113;-75
2023/07/12 12:33:45;;;;;;;18.55;5.93;;;;;;;;;;4177677;34;20158;-76
2023/07/12 12:36:15;;;;;;;7.47;5.75;;;;;;;;;;4151133;34;20289;-76
2023/07/12 12:38:41;;;;;;;16.50;5.93;;;;;;;;;;4152902;34;20040;-75
2023/07/12 12:41:16;;;;;;;10.90;5.82;;;;;;;;;;4149925;34;20095;-77
2023/07/12 12:43:58;;;;;;;8.55;5.75;;;;;;;;;;4152557;34;20088;-75
2023/07/12 12:46:25;;;;;;;20.98;5.95;;;;;;;;;;4147986;34;20845;-76
2023/07/12 12:48:54;;;;;;;14.07;5.25;;;;;;;;;;4137342;34;20082;-76
2023/07/12 12:51:21;;;;;;;11.43;5.62;;;;;;;;;;4137693;34;20080;-76
2023/07/12 12:53:47;;;;;;;10.70;6.47;;;;;;;;;;4137054;34;20040;-75
2023/07/12 12:56:14;;;;;;;12.18;6.25;;;;;;;;;;4137971;34;20840;-75
2023/07/12 12:58:41;;;;;;;9.75;5.90;;;;;;;;;;4143646;34;20048;-75
2023/07/12 13:01:08;;;;;;;7.47;5.45;;;;;;;;;;4156917;34;20444;-76
2023/07/12 13:03:36;;;;;;;14.15;5.47;;;;;;;;;;4192297;34;20043;-75
2023/07/12 13:06:02;;;;;;;14.82;6.68;;;;;;;;;;4193848;34;20073;-74
2023/07/12 13:08:28;;;;;;;11.23;5.10;;;;;;;;;;4221527;34;20353;-75
2023/07/12 13:10:55;;;;;;;20.73;6.43;;;;;;;;;;4211617;34;20088;-74
2023/07/12 13:13:21;;;;;;;11.15;4.95;;;;;;;;;;4205089;34;20047;-75
2023/07/12 13:15:48;;;;;;;12.52;4.93;;;;;;;;;;4216736;34;20568;-73
2023/07/12 13:18:15;;;;;;;12.93;5.28;;;;;;;;;;4211088;34;20028;-74
2023/07/12 13:20:41;;;;;;;11.48;5.07;;;;;;;;;;4167288;34;20078;-73
2023/07/12 13:23:08;;;;;;;8.95;5.45;;;;;;;;;;4163911;34;20171;-77
2023/07/12 13:25:38;;;;;;;7.90;4.45;;;;;;;;;;4152300;34;20048;-74
2023/07/12 13:28:04;;;;;;;10.63;4.93;;;;;;;;;;4144471;34;20066;-73
2023/07/12 13:30:31;;;;;;;11.23;5.55;;;;;;;;;;4155064;34;20465;-73
2023/07/12 13:32:57;;;;;;;5.03;4.53;;;;;;;;;;4157746;34;20052;-75
2023/07/12 13:35:24;;;;;;;7.12;4.40;;;;;;;;;;4161803;34;20062;-74
2023/07/12 13:37:50;;;;;;;9.48;5.15;;;;;;;;;;4163267;34;20074;-74
2023/07/12 13:40:20;;;;;;;4.60;4.20;;;;;;;;;;4164908;34;20060;-76
2023/07/12 13:42:47;;;;;;;7.62;4.57;;;;;;;;;;4160604;34;20104;-76
2023/07/12 13:45:15;;;;;;;12.25;4.22;;;;;;;;;;4162671;34;20699;-77
2023/07/12 13:47:42;;;;;;;8.68;4.55;;;;;;;;;;4163148;34;20052;-76
2023/07/12 13:50:18;;;;;;;10.00;4.45;;;;;;;;;;4162656;34;20758;-76
2023/07/12 13:52:44;;;;;;;4.40;3.95;;;;;;;;;;4191049;34;20043;-77
2023/07/12 13:55:14;;;;;;;8.35;4.53;;;;;;;;;;4184022;34;20163;-78
2023/07/12 13:57:41;;;;;;;7.68;3.92;;;;;;;;;;4194145;34;20379;-77
2023/07/12 14:00:11;;;;;;;7.25;3.85;;;;;;;;;;4187723;34;20187;-77
2023/07/12 14:02:38;;;;;;;4.40;3.65;;;;;;;;;;4198061;34;20051;-76
2023/07/12 14:05:06;;;;;;;8.80;3.90;;;;;;;;;;4175359;34;20059;-78
2023/07/12 14:07:34;;;;;;;4.72;4.00;;;;;;;;;;4177463;34;20043;-76
2023/07/12 14:10:01;;;;;;;11.98;3.30;;;;;;;;;;4178345;34;20075;-76
2023/07/12 14:12:28;;;;;;;7.62;4.30;;;;;;;;;;4147690;34;20112;-76
2023/07/12 14:14:55;;;;;;;6.45;3.80;;;;;;;;;;4149801;34;20080;-76
2023/07/12 14:17:24;;;;;;;8.43;4.12;;;;;;;;;;4150396;34;20090;-79
2023/07/12 14:19:54;;;;;;;5.90;4.68;;;;;;;;;;4150741;34;20060;-74
2023/07/12 14:22:23;;;;;;;7.55;4.32;;;;;;;;;;4151906;34;20100;-74
2023/07/12 14:24:50;;;;;;;6.45;4.72;;;;;;;;;;4150579;34;20892;-78
2023/07/12 14:27:18;;;;;;;4.45;3.97;;;;;;;;;;4149909;34;20232;-75
2023/07/12 14:29:46;;;;;;;6.25;4.25;;;;;;;;;;4151123;34;20087;-76
2023/07/12 14:32:16;;;;;;;8.52;5.15;;;;;;;;;;4151820;34;20090;-75
2023/07/12 14:34:43;;;;;;;4.90;4.40;;;;;;;;;;4134343;34;20377;-77
2023/07/12 14:37:15;;;;;;;6.07;4.53;;;;;;;;;;4174094;34;20040;-77
2023/07/12 14:39:42;;;;;;;8.85;4.22;;;;;;;;;;4149228;34;20088;-76
2023/07/12 14:42:22;;;;;;;7.40;4.32;;;;;;;;;;4137197;34;20059;-77
2023/07/12 14:44:49;;;;;;;12.85;4.57;;;;;;;;;;4140808;34;20041;-77
2023/07/12 14:47:16;;;;;;;6.80;4.37;;;;;;;;;;4140257;34;20481;-77
2023/07/12 14:49:44;;;;;;;9.13;5.65;;;;;;;;;;4145498;34;20122;-78
2023/07/12 14:52:19;;;;;;;8.35;4.40;;;;;;;;;;4150157;34;20070;-77
2023/07/12 14:54:45;;;;;;;6.28;4.03;;;;;;;;;;4159653;34;20060;-77
2023/07/12 14:57:12;;;;;;;6.20;4.78;;;;;;;;;;4137383;34;20828;-77
2023/07/12 14:59:38;;;;;;;9.48;4.57;;;;;;;;;;4133941;34;20172;-77
2023/07/12 15:02:13;;;;;;;5.65;4.60;;;;;;;;;;4126088;34;20060;-78
2023/07/12 15:04:39;;;;;;;6.62;5.03;;;;;;;;;;4126549;34;20049;-77
2023/07/12 15:07:12;;;;;;;8.00;4.70;;;;;;;;;;4135480;34;20164;-78
2023/07/12 15:09:38;;;;;;;10.05;5.22;;;;;;;;;;4113850;34;20454;-77
2023/07/12 15:12:04;;;;;;;6.15;4.30;;;;;;;;;;4166527;34;20534;-78
2023/07/12 15:14:30;;;;;;;9.35;4.62;;;;;;;;;;4180003;34;20068;-77
2023/07/12 15:16:56;;;;;;;7.43;5.10;;;;;;;;;;4176517;34;20727;-78
2023/07/12 15:19:24;;;;;;;8.65;4.68;;;;;;;;;;4164507;34;20053;-76
2023/07/12 15:21:53;;;;;;;10.50;4.68;;;;;;;;;;4167095;34;20029;-73
2023/07/12 15:24:22;;;;;;;5.50;5.00;;;;;;;;;;4168927;34;20056;-73
2023/07/12 15:26:49;;;;;;;8.32;5.07;;;;;;;;;;4167634;34;20593;-74
2023/07/12 15:29:23;;;;;;;7.47;4.50;;;;;;;;;;4178338;34;20085;-75
2023/07/12 15:31:49;;;;;;;6.65;5.15;;;;;;;;;;4194347;34;20035;-74
2023/07/12 15:34:15;;;;;;;6.78;5.07;;;;;;;;;;4194347;34;20077;-75
2023/07/12 15:36:41;;;;;;;4.75;4.35;;;;;;;;;;4193550;34;20052;-81
2023/07/12 15:39:08;;;;;;;5.18;4.50;;;;;;;;;;4171979;34;20596;-74
2023/07/12 15:41:35;;;;;;;8.82;4.50;;;;;;;;;;4169347;34;20086;-72
2023/07/12 15:44:04;;;;;;;13.52;4.68;;;;;;;;;;4172936;34;20078;-74
2023/07/12 15:46:32;;;;;;;12.10;4.35;;;;;;;;;;4171223;34;20056;-73
2023/07/12 15:48:58;;;;;;;8.00;4.35;;;;;;;;;;4170611;34;20069;-73
2023/07/12 15:51:37;;;;;;;10.18;4.40;;;;;;;;;;4185696;34;20078;-73
2023/07/12 15:54:29;;;;;;;5.37;4.85;;;;;;;;;;4172029;34;20494;-78
2023/07/12 15:57:08;;;;;;;8.10;4.43;;;;;;;;;;4185139;34;20044;-75
2023/07/12 15:59:35;;;;;;;4.62;4.05;;;;;;;;;;4176079;34;20115;-80
2023/07/12 16:02:01;;;;;;;16.45;4.28;;;;;;;;;;4184133;34;20208;-82
2023/07/12 16:04:31;;;;;;;10.60;4.10;;;;;;;;;;4192539;34;20088;-78
2023/07/12 16:06:58;;;;;;;9.02;5.15;;;;;;;;;;4192366;34;20109;-78
2023/07/12 16:09:24;;;;;;;6.95;4.47;;;;;;;;;;4196536;34;20154;-80
2023/07/12 16:11:51;;;;;;;8.55;4.40;;;;;;;;;;4194948;34;20055;-83
2023/07/12 16:14:25;;;;;;;6.72;3.83;;;;;;;;;;4191522;34;20072;-79
2023/07/12 16:16:52;;;;;;;13.07;5.37;;;;;;;;;;4176883;34;20052;-78
2023/07/12 16:19:18;;;;;;;13.15;4.00;;;;;;;;;;4180513;34;20066;-80
2023/07/12 16:21:44;;;;;;;4.85;4.00;;;;;;;;;;4167662;34;20040;-82
2023/07/12 16:24:12;;;;;;;4.75;3.45;;;;;;;;;;4181078;34;20077;-80
2023/07/12 16:26:39;;;;;;;5.18;3.90;;;;;;;;;;4167585;34;20058;-78
2023/07/12 16:29:06;;;;;;;6.03;3.92;;;;;;;;;;4180093;34;20073;-79
2023/07/12 16:31:40;;;;;;;5.75;3.97;;;;;;;;;;4204362;34;20081;-78
2023/07/12 16:34:14;;;;;;;6.43;4.28;;;;;;;;;;4195171;34;20121;-79
2023/07/12 16:36:41;;;;;;;13.00;4.03;;;;;;;;;;4192569;34;20450;-78
2023/07/12 16:39:08;;;;;;;6.32;3.92;;;;;;;;;;4177903;34;20051;-80
2023/07/12 16:41:37;;;;;;;12.50;4.62;;;;;;;;;;4180509;34;20457;-80
2023/07/12 16:44:11;;;;;;;15.70;4.43;;;;;;;;;;4181153;34;20423;-79
2023/07/12 16:46:37;;;;;;;;;;;;;;;;;;4154609;34;20028;-79
2023/07/12 16:49:04;;;;;;;5.28;4.05;;;;;;;;;;4154136;34;19959;-85